createdAt,value
2018-05-15T00:01:49.256Z,73.90
2018-05-15T00:04:15.842Z,73.80
2018-05-15T00:06:42.451Z,74.30
2018-05-15T00:09:08.988Z,74.50
2018-05-15T00:11:35.592Z,74.70
2018-05-15T00:14:02.164Z,75.10
2018-05-15T00:16:28.741Z,75.50
2018-05-15T00:18:55.320Z,75.00
2018-05-15T00:21:22.233Z,75.80
2018-05-15T00:23:48.820Z,75.80
2018-05-15T00:26:15.735Z,74.90
2018-05-15T00:28:42.328Z,74.90
2018-05-15T00:31:08.915Z,74.80
2018-05-15T00:33:35.477Z,75.00
2018-05-15T00:36:02.057Z,75.00
2018-05-15T00:38:28.996Z,74.80
2018-05-15T00:40:55.580Z,74.80
2018-05-15T00:43:22.152Z,74.50
2018-05-15T00:45:48.787Z,75.00
2018-05-15T00:48:15.372Z,74.80
2018-05-15T00:50:41.920Z,74.80
2018-05-15T00:53:08.505Z,74.60
2018-05-15T00:55:41.412Z,74.40
2018-05-15T00:58:08.364Z,74.20
2018-05-15T01:00:35.336Z,74.40
2018-05-15T01:03:01.898Z,74.40
2018-05-15T01:05:28.496Z,73.60
2018-05-15T01:07:55.042Z,73.70
2018-05-15T01:10:21.692Z,73.90
2018-05-15T01:12:48.304Z,73.50
2018-05-15T01:15:14.848Z,73.60
2018-05-15T01:17:41.411Z,73.60
2018-05-15T01:20:07.968Z,73.90
2018-05-15T01:22:34.545Z,73.50
2018-05-15T01:25:01.500Z,73.10
2018-05-15T01:27:28.065Z,73.10
2018-05-15T01:29:54.996Z,73.10
2018-05-15T01:32:21.573Z,73.10
2018-05-15T01:34:48.164Z,73.10
2018-05-15T01:37:15.169Z,72.90
2018-05-15T01:39:42.021Z,73.30
2018-05-15T01:42:08.629Z,73.50
2018-05-15T01:44:35.168Z,73.30
2018-05-15T01:47:01.754Z,73.30
2018-05-15T01:49:28.701Z,73.90
2018-05-15T01:51:55.248Z,74.00
2018-05-15T01:54:21.828Z,74.30
2018-05-15T01:56:48.385Z,73.90
2018-05-15T01:59:14.967Z,74.50
2018-05-15T02:01:41.542Z,74.60
2018-05-15T02:04:08.455Z,74.60
2018-05-15T02:06:35.023Z,74.60
2018-05-15T02:09:01.568Z,74.10
2018-05-15T02:11:28.188Z,74.70
2018-05-15T02:13:54.775Z,74.70
2018-05-15T02:16:21.343Z,74.60
2018-05-15T02:18:48.307Z,74.70
2018-05-15T02:21:15.259Z,74.90
2018-05-15T02:23:42.168Z,75.30
2018-05-15T02:26:08.787Z,75.30
2018-05-15T02:28:35.369Z,74.80
2018-05-15T02:31:01.940Z,75.10
2018-05-15T02:33:28.508Z,75.20
2018-05-15T02:35:55.423Z,75.60
2018-05-15T02:38:22.012Z,75.60
2018-05-15T02:40:48.966Z,76.20
2018-05-15T02:43:15.884Z,76.60
2018-05-15T02:45:42.461Z,76.60
2018-05-15T02:48:09.373Z,76.90
2018-05-15T02:50:35.948Z,76.90
2018-05-15T02:53:02.513Z,76.80
2018-05-15T02:55:29.461Z,77.50
2018-05-15T02:57:56.049Z,77.50
2018-05-15T03:00:22.609Z,77.60
2018-05-15T03:02:49.209Z,77.50
2018-05-15T03:05:16.177Z,77.40
2018-05-15T03:07:43.090Z,77.90
2018-05-15T03:10:09.664Z,77.90
2018-05-15T03:12:36.248Z,78.20
2018-05-15T03:15:02.887Z,78.40
2018-05-15T03:17:29.833Z,79.10
2018-05-15T03:19:56.741Z,79.20
2018-05-15T03:22:23.313Z,79.20
2018-05-15T03:24:49.887Z,79.50
2018-05-15T03:27:16.477Z,79.40
2018-05-15T03:29:43.047Z,79.40
2018-05-15T03:32:09.588Z,79.80
2018-05-15T03:34:36.162Z,80.10
2018-05-15T03:37:02.748Z,80.20
2018-05-15T03:39:29.368Z,80.30
2018-05-15T03:41:56.316Z,80.10
2018-05-15T03:44:22.864Z,80.10
2018-05-15T03:46:49.865Z,80.20
2018-05-15T03:50:43.540Z,80.20
2018-05-15T03:53:10.512Z,80.00
2018-05-15T03:55:37.060Z,80.00
2018-05-15T03:58:03.651Z,80.10
2018-05-15T04:00:42.599Z,80.20
2018-05-15T04:03:21.283Z,80.30
2018-05-15T04:05:59.859Z,80.70
2018-05-15T04:08:26.439Z,81.00
2018-05-15T04:10:53.476Z,80.90
2018-05-15T04:13:20.024Z,80.90
2018-05-15T04:15:54.019Z,80.90
2018-05-15T04:18:20.575Z,80.90
2018-05-15T04:20:47.186Z,81.40
2018-05-15T04:23:13.786Z,81.00
2018-05-15T04:25:40.324Z,81.10
2018-05-15T04:28:06.954Z,80.60
2018-05-15T04:30:33.491Z,81.00
2018-05-15T04:33:00.081Z,81.10
2018-05-15T04:35:26.676Z,81.20
2018-05-15T04:37:53.224Z,81.20
2018-05-15T04:40:19.819Z,81.30
2018-05-15T04:42:46.365Z,81.80
2018-05-15T04:45:12.972Z,81.50
2018-05-15T04:47:39.559Z,81.50
2018-05-15T04:50:06.213Z,81.20
2018-05-15T04:52:32.792Z,81.60
2018-05-15T04:54:59.344Z,81.10
2018-05-15T04:57:25.933Z,82.30
2018-05-15T04:59:52.481Z,81.50
2018-05-15T05:02:19.079Z,81.60
2018-05-15T05:04:45.664Z,80.20
2018-05-15T05:07:12.216Z,80.60
2018-05-15T05:09:38.800Z,79.80
2018-05-15T05:12:05.480Z,79.30
2018-05-15T05:14:32.412Z,78.00
2018-05-15T05:16:59.359Z,77.50
2018-05-15T05:19:25.891Z,77.50
2018-05-15T05:21:52.460Z,76.10
2018-05-15T05:24:19.016Z,75.40
2018-05-15T05:26:45.988Z,74.60
2018-05-15T05:29:12.605Z,74.60
2018-05-15T05:31:39.148Z,73.80
2018-05-15T05:34:05.751Z,73.90
2018-05-15T05:36:32.304Z,73.30
2018-05-15T05:38:58.881Z,73.70
2018-05-15T05:41:25.484Z,73.20
2018-05-15T05:43:52.021Z,73.70
2018-05-15T05:46:18.654Z,72.30
2018-05-15T05:48:45.551Z,71.70
2018-05-15T05:51:12.129Z,71.70
2018-05-15T05:53:38.709Z,71.20
2018-05-15T05:56:05.251Z,70.70
2018-05-15T05:58:32.227Z,68.90
2018-05-15T06:00:58.776Z,68.90
2018-05-15T06:03:25.344Z,69.30
2018-05-15T06:05:51.920Z,69.90
2018-05-15T06:08:18.477Z,70.80
2018-05-15T06:10:45.060Z,70.80
2018-05-15T06:13:11.649Z,72.30
2018-05-15T06:15:38.220Z,72.10
2018-05-15T06:18:04.889Z,72.20
2018-05-15T06:20:31.436Z,71.20
2018-05-15T06:22:58.461Z,70.70
2018-05-15T06:25:24.999Z,70.70
2018-05-15T06:27:51.575Z,69.90
2018-05-15T06:30:18.555Z,67.80
2018-05-15T06:32:45.113Z,67.80
2018-05-15T06:35:11.712Z,68.90
2018-05-15T06:37:38.256Z,69.70
2018-05-15T06:40:04.899Z,72.00
2018-05-15T06:42:31.475Z,72.30
2018-05-15T06:44:58.017Z,72.20
2018-05-15T06:47:24.614Z,72.70
2018-05-15T06:49:51.168Z,70.70
2018-05-15T06:52:17.775Z,71.30
2018-05-15T06:54:44.724Z,70.90
2018-05-15T06:57:11.265Z,70.90
2018-05-15T06:59:38.129Z,70.20
2018-05-15T07:02:05.124Z,67.70
2018-05-15T07:04:31.743Z,66.70
2018-05-15T07:06:58.706Z,66.70
2018-05-15T07:09:25.631Z,65.20
2018-05-15T07:11:52.264Z,65.20
2018-05-15T07:14:18.832Z,67.10
2018-05-15T07:16:45.384Z,66.70
2018-05-15T07:19:11.986Z,67.00
2018-05-15T07:21:38.584Z,66.80
2018-05-15T07:24:05.144Z,68.20
2018-05-15T07:26:32.100Z,66.30
2018-05-15T07:28:59.058Z,66.30
2018-05-15T07:31:25.980Z,64.10
2018-05-15T07:33:52.560Z,64.10
2018-05-15T07:36:19.485Z,63.90
2018-05-15T07:38:46.060Z,63.90
2018-05-15T07:41:13.010Z,66.10
2018-05-15T07:43:39.932Z,66.60
2018-05-15T07:46:06.559Z,66.60
2018-05-15T07:48:33.104Z,66.20
2018-05-15T07:50:59.673Z,65.30
2018-05-15T07:53:26.244Z,65.60
2018-05-15T07:55:52.792Z,65.30
2018-05-15T07:58:19.380Z,63.60
2018-05-15T08:00:45.965Z,62.80
2018-05-15T08:03:12.861Z,63.90
2018-05-15T08:05:39.512Z,63.70
2018-05-15T08:08:06.421Z,62.90
2018-05-15T08:10:33.063Z,62.90
2018-05-15T08:12:59.652Z,61.30
2018-05-15T08:15:26.616Z,61.70
2018-05-15T08:17:53.197Z,61.70
2018-05-15T08:20:19.756Z,62.20
2018-05-15T08:22:46.356Z,63.00
2018-05-15T08:25:13.269Z,64.00
2018-05-15T08:27:39.857Z,64.00
2018-05-15T08:30:06.684Z,63.00
2018-05-15T08:32:33.243Z,63.50
2018-05-15T08:34:59.824Z,64.10
2018-05-15T08:37:26.835Z,63.70
2018-05-15T08:39:53.344Z,63.70
2018-05-15T08:42:19.923Z,64.70
2018-05-15T08:44:46.450Z,64.80
2018-05-15T08:47:13.040Z,65.00
2018-05-15T08:49:39.576Z,64.30
2018-05-15T08:52:06.192Z,64.60
2018-05-15T08:54:32.779Z,64.30
2018-05-15T08:56:59.340Z,63.70
2018-05-15T08:59:25.919Z,64.40
2018-05-15T09:01:52.472Z,65.00
2018-05-15T09:04:19.053Z,64.20
2018-05-15T09:06:45.627Z,63.90
2018-05-15T09:09:12.178Z,64.80
2018-05-15T09:11:38.754Z,63.50
2018-05-15T09:14:05.712Z,64.60
2018-05-15T09:16:32.292Z,64.60
2018-05-15T09:18:58.876Z,65.20
2018-05-15T09:21:25.424Z,66.60
2018-05-15T09:23:52.039Z,65.40
2018-05-15T09:26:18.632Z,64.70
2018-05-15T09:28:45.206Z,63.80
2018-05-15T09:31:11.789Z,62.30
2018-05-15T09:33:38.352Z,63.40
2018-05-15T09:36:04.978Z,61.20
2018-05-15T09:38:31.531Z,62.70
2018-05-15T09:40:58.104Z,62.80
2018-05-15T09:43:28.073Z,63.40
2018-05-15T09:45:54.620Z,63.40
2018-05-15T09:48:21.203Z,64.70
2018-05-15T09:50:47.773Z,64.80
2018-05-15T09:53:14.358Z,64.00
2018-05-15T09:55:40.936Z,65.00
2018-05-15T09:58:07.474Z,64.90
2018-05-15T10:00:34.059Z,65.70
2018-05-15T10:03:00.600Z,64.90
2018-05-15T10:05:27.172Z,64.60
2018-05-15T10:07:53.858Z,64.90
2018-05-15T10:10:20.373Z,64.00
2018-05-15T10:12:47.066Z,65.20
2018-05-15T10:15:13.606Z,65.70
2018-05-15T10:17:40.197Z,64.80
2018-05-15T10:20:06.800Z,64.00
2018-05-15T10:22:33.372Z,63.30
2018-05-15T10:24:59.972Z,63.50
2018-05-15T10:27:26.947Z,64.50
2018-05-15T10:29:53.625Z,64.50
2018-05-15T10:32:20.576Z,64.50
2018-05-15T10:34:47.133Z,64.50
2018-05-15T10:37:13.753Z,62.20
2018-05-15T10:39:40.367Z,62.30
2018-05-15T10:42:07.282Z,61.10
2018-05-15T10:44:33.862Z,61.00
2018-05-15T10:47:00.448Z,60.90
2018-05-15T10:49:26.992Z,61.50
2018-05-15T10:52:00.512Z,61.10
2018-05-15T10:54:27.077Z,60.90
2018-05-15T10:56:53.661Z,61.90
2018-05-15T10:59:20.275Z,59.40
2018-05-15T11:01:46.812Z,59.80
2018-05-15T11:04:13.414Z,60.80
2018-05-15T11:06:40.344Z,59.70
2018-05-15T11:09:06.936Z,59.70
2018-05-15T11:11:33.892Z,58.30
2018-05-15T11:14:00.880Z,57.20
2018-05-15T11:16:27.518Z,57.20
2018-05-15T11:18:54.097Z,57.60
2018-05-15T11:21:32.830Z,58.00
2018-05-15T11:27:03.529Z,61.80
2018-05-15T11:29:30.286Z,62.00
2018-05-15T11:31:56.761Z,60.20
2018-05-15T11:34:23.733Z,62.60
2018-05-15T11:36:50.296Z,62.60
2018-05-15T11:39:16.879Z,61.70
2018-05-15T11:41:43.519Z,62.30
2018-05-15T11:44:10.124Z,61.40
2018-05-15T11:46:36.689Z,59.70
2018-05-15T11:49:04.299Z,60.40
2018-05-15T11:51:31.042Z,58.80
2018-05-15T11:53:56.874Z,58.80
2018-05-15T11:56:23.912Z,60.40
2018-05-15T11:58:50.552Z,60.40
2018-05-15T12:01:17.113Z,59.90
2018-05-15T12:03:43.787Z,60.40
2018-05-15T12:06:10.328Z,60.40
2018-05-15T12:08:36.923Z,62.00
2018-05-15T12:11:03.502Z,61.70
2018-05-15T12:13:30.076Z,62.80
2018-05-15T12:15:56.660Z,63.40
2018-05-15T12:18:23.198Z,63.60
2018-05-15T12:20:50.169Z,64.30
2018-05-15T12:23:16.752Z,64.30
2018-05-15T12:25:43.713Z,65.30
2018-05-15T12:28:10.309Z,65.30
2018-05-15T12:30:36.865Z,65.50
2018-05-15T12:33:03.448Z,66.30
2018-05-15T12:35:30.040Z,71.20
2018-05-15T12:37:56.948Z,71.20
2018-05-15T12:40:23.536Z,71.20
2018-05-15T12:42:50.080Z,71.20
2018-05-15T12:45:17.056Z,70.70
2018-05-15T12:47:44.062Z,68.70
2018-05-15T12:50:10.582Z,68.70
2018-05-15T12:52:37.160Z,69.30
2018-05-15T12:55:03.736Z,67.50
2018-05-15T12:57:30.689Z,66.70
2018-05-15T12:59:57.269Z,66.70
2018-05-15T13:02:23.824Z,67.50
2018-05-15T13:04:50.408Z,65.90
2018-05-15T13:07:16.963Z,66.30
2018-05-15T13:09:43.540Z,66.00
2018-05-15T13:12:10.529Z,64.30
2018-05-15T13:14:37.100Z,64.30
2018-05-15T13:17:03.701Z,64.60
2018-05-15T13:19:30.619Z,61.90
2018-05-15T13:21:57.194Z,61.90
2018-05-15T13:24:24.225Z,60.70
2018-05-15T13:26:50.763Z,60.70
2018-05-15T13:29:17.608Z,62.50
2018-05-15T13:31:44.968Z,61.90
2018-05-15T13:34:11.985Z,61.90
2018-05-15T13:36:39.933Z,61.50
2018-05-15T13:39:07.003Z,61.90
2018-05-15T13:41:34.534Z,60.90
2018-05-15T13:44:01.461Z,60.90
2018-05-15T13:46:28.061Z,60.70
2018-05-15T13:48:54.644Z,61.00
2018-05-15T13:51:21.556Z,61.00
2018-05-15T13:53:48.128Z,61.00
2018-05-15T13:56:14.676Z,61.10
2018-05-15T13:58:41.273Z,60.20
2018-05-15T14:01:07.857Z,60.50
2018-05-15T14:03:34.417Z,60.70
2018-05-15T14:06:01.001Z,60.00
2018-05-15T14:08:27.568Z,58.30
2018-05-15T14:10:54.140Z,59.10
2018-05-15T14:13:20.772Z,58.80
2018-05-15T14:15:47.341Z,57.00
2018-05-15T14:18:13.964Z,58.30
2018-05-15T14:20:40.517Z,57.40
2018-05-15T14:23:07.105Z,59.70
2018-05-15T14:25:33.701Z,58.10
2018-05-15T14:28:00.288Z,58.80
2018-05-15T14:30:33.910Z,58.80
2018-05-15T14:33:00.460Z,59.20
2018-05-15T14:35:27.065Z,59.80
2018-05-15T14:37:53.645Z,60.00
2018-05-15T14:40:20.207Z,59.70
2018-05-15T14:42:58.908Z,59.40
2018-05-15T14:45:25.499Z,59.80
2018-05-15T14:47:52.052Z,58.30
2018-05-15T14:50:19.000Z,57.50
2018-05-15T14:52:45.916Z,55.30
2018-05-15T14:55:12.525Z,55.30
2018-05-15T14:57:39.192Z,56.20
2018-05-15T15:00:05.769Z,57.60
2018-05-15T15:02:32.353Z,57.50
2018-05-15T15:04:59.263Z,58.20
2018-05-15T15:07:25.844Z,58.20
2018-05-15T15:09:52.436Z,58.00
2018-05-15T15:12:19.005Z,58.40
2018-05-15T15:14:45.624Z,59.60
2018-05-15T15:17:12.185Z,59.30
2018-05-15T15:19:38.760Z,60.20
2018-05-15T15:22:05.373Z,61.80
2018-05-15T15:24:31.924Z,62.10
2018-05-15T15:26:58.500Z,62.90
2018-05-15T15:29:25.040Z,62.10
2018-05-15T15:31:51.620Z,63.60
2018-05-15T15:34:18.229Z,64.30
2018-05-15T15:36:44.779Z,64.40
2018-05-15T15:39:11.356Z,64.30
2018-05-15T15:41:37.911Z,64.60
2018-05-15T15:44:04.511Z,64.70
2018-05-15T15:46:31.108Z,65.10
2018-05-15T15:48:57.659Z,65.10
2018-05-15T15:51:24.254Z,66.00
2018-05-15T15:53:50.821Z,66.80
2018-05-15T15:56:17.420Z,66.60
2018-05-15T15:58:44.384Z,67.90
2018-05-15T16:01:11.314Z,68.20
2018-05-15T16:03:37.896Z,68.20
2018-05-15T16:06:04.467Z,68.80
2018-05-15T16:08:31.060Z,69.20
2018-05-15T16:10:57.647Z,69.10
2018-05-15T16:13:24.193Z,68.90
2018-05-15T16:15:50.808Z,68.80
2018-05-15T16:18:17.759Z,69.10
2018-05-15T16:20:44.709Z,68.50
2018-05-15T16:23:11.292Z,68.50
2018-05-15T16:25:37.838Z,68.40
2018-05-15T16:28:04.422Z,68.30
2018-05-15T16:30:31.001Z,68.40
2018-05-15T16:32:57.590Z,68.10
2018-05-15T16:35:24.159Z,68.10
2018-05-15T16:37:50.708Z,67.70
2018-05-15T16:40:17.313Z,67.60
2018-05-15T16:42:44.232Z,68.40
2018-05-15T16:45:11.097Z,68.40
2018-05-15T16:47:37.684Z,68.00
2018-05-15T16:50:04.296Z,68.50
2018-05-15T16:52:30.892Z,68.40
2018-05-15T16:54:57.440Z,67.90
2018-05-15T16:57:24.008Z,67.70
2018-05-15T16:59:51.581Z,67.60
2018-05-15T17:02:18.196Z,67.80
2018-05-15T17:04:44.789Z,68.20
2018-05-15T17:07:11.339Z,67.70
2018-05-15T17:09:37.916Z,67.70
2018-05-15T17:12:04.505Z,67.60
2018-05-15T17:14:31.082Z,68.10
2018-05-15T17:16:57.655Z,66.30
2018-05-15T17:19:24.201Z,67.00
2018-05-15T17:21:51.655Z,69.60
2018-05-15T17:24:18.253Z,71.60
2018-05-15T17:26:44.790Z,75.00
2018-05-15T17:29:11.397Z,76.80
2018-05-15T17:31:37.951Z,77.00
2018-05-15T17:34:04.532Z,78.90
2018-05-15T17:36:31.127Z,84.80
2018-05-15T17:38:57.666Z,88.30
2018-05-15T17:41:24.256Z,92.90
2018-05-15T17:43:51.216Z,93.90
2018-05-15T17:46:17.789Z,93.90
2018-05-15T17:48:44.387Z,96.00
2018-05-15T17:51:10.973Z,94.70
2018-05-15T17:53:37.545Z,95.60
2018-05-15T17:56:04.133Z,92.40
2018-05-15T17:58:30.680Z,92.40
2018-05-15T18:00:57.256Z,93.70
2018-05-15T18:03:24.211Z,90.20
2018-05-15T18:05:51.136Z,89.50
2018-05-15T18:08:17.747Z,89.50
2018-05-15T18:10:44.300Z,88.50
2018-05-15T18:13:10.901Z,88.50
2018-05-15T18:15:37.509Z,89.20
2018-05-15T18:18:04.164Z,90.00
2018-05-15T18:20:30.756Z,90.20
2018-05-15T18:22:57.683Z,94.40
2018-05-15T18:25:24.382Z,94.30
2018-05-15T18:27:50.962Z,96.20
2018-05-15T18:30:17.541Z,94.50
2018-05-15T18:32:44.127Z,94.60
2018-05-15T18:35:10.676Z,94.50
2018-05-15T18:37:37.549Z,94.60
2018-05-15T18:40:04.156Z,93.00
2018-05-15T18:42:31.078Z,92.00
2018-05-15T18:44:57.728Z,92.00
2018-05-15T18:47:24.304Z,90.90
2018-05-15T18:49:51.828Z,90.40
2018-05-15T18:52:18.408Z,91.50
2018-05-15T18:54:44.962Z,91.90
2018-05-15T18:57:11.967Z,93.00
2018-05-15T18:59:38.507Z,93.10
2018-05-15T19:02:05.108Z,97.00
2018-05-15T19:04:31.684Z,94.50
2018-05-15T19:06:58.304Z,91.80
2018-05-15T19:09:24.892Z,90.40
2018-05-15T19:11:51.545Z,89.90
2018-05-15T19:14:18.160Z,91.90
2018-05-15T19:16:46.083Z,92.30
2018-05-15T19:19:13.621Z,92.40
2018-05-15T19:21:40.161Z,92.60
2018-05-15T19:24:07.161Z,92.20
2018-05-15T19:26:34.208Z,92.20
2018-05-15T19:29:00.776Z,90.30
2018-05-15T19:31:34.202Z,91.20
2018-05-15T19:34:01.692Z,89.70
2018-05-15T19:36:31.324Z,90.80
2018-05-15T19:39:04.352Z,90.90
2018-05-15T19:41:32.017Z,90.90
2018-05-15T19:43:59.025Z,90.70
2018-05-15T19:46:25.574Z,90.70
2018-05-15T19:48:52.164Z,90.20
2018-05-15T19:51:19.853Z,90.60
2018-05-15T19:53:47.317Z,90.60
2018-05-15T19:56:14.656Z,91.70
2018-05-15T19:58:41.764Z,89.80
2018-05-15T20:01:08.360Z,89.50
2018-05-15T20:03:35.440Z,90.40
2018-05-15T20:06:03.091Z,90.60
2018-05-15T20:08:29.632Z,90.60
2018-05-15T20:10:56.213Z,90.10
2018-05-15T20:13:22.759Z,90.10
2018-05-15T20:15:49.757Z,89.90
2018-05-15T20:18:16.301Z,89.90
2018-05-15T20:20:42.880Z,90.80
2018-05-15T20:23:09.453Z,90.80
2018-05-15T20:25:36.380Z,90.70
2018-05-15T20:28:03.992Z,90.70
2018-05-15T20:30:30.581Z,90.80
2018-05-15T20:32:57.152Z,91.10
2018-05-15T20:35:23.725Z,91.50
2018-05-15T20:37:50.652Z,93.00
2018-05-15T20:40:18.102Z,93.00
2018-05-15T20:42:44.645Z,92.70
2018-05-15T20:45:11.228Z,91.50
2018-05-15T20:47:38.248Z,91.00
2018-05-15T20:50:04.802Z,90.80
2018-05-15T20:52:31.380Z,91.50
2018-05-15T20:54:57.943Z,91.20
2018-05-15T20:57:24.881Z,91.20
2018-05-15T20:59:51.504Z,91.20
2018-05-15T21:02:18.057Z,90.70
2018-05-15T21:04:44.631Z,92.40
2018-05-15T21:07:11.187Z,92.40
2018-05-15T21:09:38.172Z,92.40
2018-05-15T21:12:04.796Z,92.40
2018-05-15T21:14:31.741Z,92.50
2018-05-15T21:16:58.364Z,92.50
2018-05-15T21:19:24.928Z,91.70
2018-05-15T21:21:51.581Z,92.80
2018-05-15T21:24:18.132Z,92.00
2018-05-15T21:26:44.690Z,92.50
2018-05-15T21:29:11.661Z,92.30
2018-05-15T21:31:38.208Z,92.30
2018-05-15T21:34:04.792Z,92.30
2018-05-15T21:36:31.423Z,93.30
2018-05-15T21:38:57.968Z,92.60
2018-05-15T21:41:24.564Z,92.60
2018-05-15T21:43:51.222Z,91.80
2018-05-15T21:46:18.249Z,92.10
2018-05-15T21:48:44.839Z,92.10
2018-05-15T21:51:11.760Z,92.40
2018-05-15T21:53:38.335Z,92.40
2018-05-15T21:56:04.874Z,92.30
2018-05-15T21:58:31.466Z,93.10
2018-05-15T22:00:58.096Z,93.00
2018-05-15T22:03:25.043Z,92.50
2018-05-15T22:05:52.038Z,91.90
2018-05-15T22:08:18.859Z,91.90
2018-05-15T22:10:46.066Z,92.90
2018-05-15T22:13:25.002Z,92.90
2018-05-15T22:16:03.808Z,92.60
2018-05-15T22:18:43.249Z,93.10
2018-05-15T22:21:22.644Z,94.00
2018-05-15T22:23:49.296Z,94.00
2018-05-15T22:26:16.137Z,93.50
2018-05-15T22:28:43.026Z,93.50
2018-05-15T22:31:09.853Z,93.10
2018-05-15T22:33:36.721Z,93.70
2018-05-15T22:36:03.308Z,93.60
2018-05-15T22:38:30.260Z,93.60
2018-05-15T22:40:57.204Z,93.70
2018-05-15T22:43:23.736Z,93.70
2018-05-15T22:45:50.327Z,94.00
2018-05-15T22:48:16.873Z,93.40
2018-05-15T22:50:43.461Z,93.30
2018-05-15T22:53:10.028Z,93.20
2018-05-15T22:55:36.565Z,93.20
2018-05-15T22:58:03.152Z,93.60
2018-05-15T23:00:30.058Z,93.00
2018-05-15T23:02:56.636Z,93.00
2018-05-15T23:05:23.209Z,93.20
2018-05-15T23:07:50.140Z,93.80
2018-05-15T23:10:16.737Z,93.80
2018-05-15T23:12:43.283Z,94.00
2018-05-15T23:15:09.889Z,93.60
2018-05-15T23:17:36.522Z,93.70
2018-05-15T23:20:03.143Z,93.90
2018-05-15T23:22:41.932Z,93.90
2018-05-15T23:25:08.849Z,93.80
2018-05-15T23:27:35.395Z,93.80
2018-05-15T23:30:01.984Z,93.90
2018-05-15T23:32:28.916Z,93.80
2018-05-15T23:34:55.461Z,93.80
2018-05-15T23:37:22.057Z,93.70
2018-05-15T23:39:48.616Z,93.50
2018-05-15T23:42:15.187Z,93.60
2018-05-15T23:44:41.759Z,93.30
2018-05-15T23:47:08.337Z,93.40
2018-05-15T23:49:35.280Z,93.00
2018-05-15T23:52:02.211Z,93.00
2018-05-15T23:54:28.796Z,93.00
2018-05-15T23:56:55.772Z,93.10
2018-05-15T23:59:22.311Z,93.10
